Time;durP1;ratioP1;P1;durP2;ratioP2;P2;SDS_P1;SDS_P2;PMS_P1;PMS_P2;Temp;Humidity;BMP_temperature;BMP_pressure;BME280_temperature;BME280_humidity;BME280_pressure;Samples;Min_cycle;Max_cycle;Signal;HPM_P1;HPM_P2
2023/09/26 00:01:10;;;;;;;5.95;3.55;;;13.10;99.90;;;;;;4973892;28;20023;-76
2023/09/26 00:03:35;;;;;;;7.47;3.90;;;13.00;99.90;;;;;;4972959;28;20031;-76
2023/09/26 00:06:20;;;;;;;5.03;3.30;;;13.00;99.90;;;;;;4973211;28;20113;-77
2023/09/26 00:08:46;;;;;;;6.40;3.85;;;12.90;99.90;;;;;;4989311;28;20030;-74
2023/09/26 00:11:30;;;;;;;5.35;3.53;;;12.90;99.90;;;;;;4971874;28;20093;-75
2023/09/26 00:13:59;;;;;;;7.53;4.68;;;12.90;99.90;;;;;;4970317;28;20073;-74
2023/09/26 00:16:25;;;;;;;5.65;4.20;;;12.80;99.90;;;;;;4972033;28;20520;-75
2023/09/26 00:18:51;;;;;;;5.32;4.15;;;12.80;99.90;;;;;;4970920;28;20033;-73
2023/09/26 00:21:16;;;;;;;5.28;4.00;;;12.70;99.90;;;;;;4971996;28;20034;-73
2023/09/26 00:23:42;;;;;;;7.05;4.28;;;12.70;99.90;;;;;;4971143;28;20058;-75
2023/09/26 00:26:08;;;;;;;6.57;4.63;;;12.70;99.90;;;;;;4972594;28;20049;-74
2023/09/26 00:28:34;;;;;;;7.65;4.00;;;12.60;99.90;;;;;;4970910;28;20027;-73
2023/09/26 00:31:04;;;;;;;6.35;4.32;;;12.60;99.90;;;;;;4969137;28;20470;-73
2023/09/26 00:33:36;;;;;;;7.85;4.32;;;12.60;99.90;;;;;;4965559;28;20043;-73
2023/09/26 00:36:08;;;;;;;9.65;4.65;;;12.50;99.90;;;;;;4966366;28;20038;-75
2023/09/26 00:38:34;;;;;;;6.25;4.70;;;12.50;99.90;;;;;;4983848;28;20037;-74
2023/09/26 00:41:03;;;;;;;5.00;3.97;;;12.50;99.90;;;;;;4968985;28;20023;-74
2023/09/26 00:43:30;;;;;;;11.30;4.63;;;12.50;99.90;;;;;;4970334;28;20505;-75
2023/09/26 00:45:56;;;;;;;5.47;4.22;;;12.40;99.90;;;;;;4972526;28;20030;-74
2023/09/26 00:48:23;;;;;;;5.55;4.03;;;12.40;99.90;;;;;;4971582;28;20027;-75
2023/09/26 00:50:50;;;;;;;7.75;3.83;;;12.40;99.90;;;;;;4969734;28;20556;-75
2023/09/26 00:53:25;;;;;;;5.55;4.00;;;12.40;99.90;;;;;;4989223;28;20037;-74
2023/09/26 00:55:54;;;;;;;4.30;3.58;;;12.30;99.90;;;;;;4973086;28;20513;-74
2023/09/26 00:58:22;;;;;;;7.32;4.13;;;12.30;99.90;;;;;;4983183;28;20034;-74
2023/09/26 01:00:58;;;;;;;6.50;4.03;;;12.20;99.90;;;;;;4970876;28;20023;-74
2023/09/26 01:03:27;;;;;;;7.32;3.95;;;12.20;99.90;;;;;;4973201;28;20038;-73
2023/09/26 01:05:57;;;;;;;11.15;4.30;;;12.10;99.90;;;;;;4970458;28;20497;-74
2023/09/26 01:08:22;;;;;;;6.65;4.15;;;12.10;99.90;;;;;;4973178;28;20061;-74
2023/09/26 01:10:51;;;;;;;6.68;4.05;;;12.10;99.90;;;;;;4967482;28;20062;-74
2023/09/26 01:13:16;;;;;;;6.05;4.13;;;12.10;99.90;;;;;;4966918;28;20027;-75
2023/09/26 01:15:48;;;;;;;4.68;4.07;;;12.00;99.90;;;;;;4973026;28;20109;-75
2023/09/26 01:18:23;;;;;;;7.03;4.65;;;12.10;99.90;;;;;;4985815;28;20118;-75
2023/09/26 01:20:49;;;;;;;6.38;4.07;;;12.00;99.90;;;;;;4970152;28;20030;-73
2023/09/26 01:23:22;;;;;;;8.25;4.53;;;12.00;99.90;;;;;;4970274;28;20030;-75
2023/09/26 01:25:47;;;;;;;6.68;4.40;;;12.00;99.90;;;;;;4970427;28;20134;-74
2023/09/26 01:28:25;;;;;;;6.20;4.78;;;12.00;99.90;;;;;;4972586;28;20106;-74
2023/09/26 01:30:50;;;;;;;7.50;4.75;;;11.90;99.90;;;;;;4970864;28;20535;-74
2023/09/26 01:33:17;;;;;;;6.05;4.07;;;12.00;99.90;;;;;;4968077;28;20031;-73
2023/09/26 01:35:43;;;;;;;9.27;4.18;;;12.00;99.90;;;;;;4967891;28;20692;-74
2023/09/26 01:38:09;;;;;;;7.05;4.57;;;12.00;99.90;;;;;;4985958;28;20382;-74
2023/09/26 01:40:35;;;;;;;7.45;4.60;;;12.00;99.90;;;;;;4973141;28;20019;-74
2023/09/26 01:43:03;;;;;;;6.28;5.03;;;11.90;99.90;;;;;;4973221;28;20019;-76
2023/09/26 01:45:29;;;;;;;8.43;4.88;;;11.90;99.90;;;;;;4979926;28;20046;-74
2023/09/26 01:47:55;;;;;;;6.70;5.13;;;11.90;99.90;;;;;;4972097;28;20034;-74
2023/09/26 01:50:21;;;;;;;6.30;4.30;;;12.00;99.90;;;;;;4972200;28;20026;-75
2023/09/26 01:52:47;;;;;;;8.45;5.18;;;11.90;99.90;;;;;;4987268;28;20126;-74
2023/09/26 01:55:18;;;;;;;6.95;5.00;;;12.00;99.90;;;;;;4969384;28;20042;-75
2023/09/26 01:57:44;;;;;;;6.72;4.97;;;11.90;99.90;;;;;;4987206;28;20027;-75
2023/09/26 02:00:15;;;;;;;6.18;4.60;;;11.90;99.90;;;;;;4969471;28;20098;-75
2023/09/26 02:02:49;;;;;;;6.38;4.75;;;11.90;99.90;;;;;;4984748;28;20034;-73
2023/09/26 02:05:20;;;;;;;6.68;4.35;;;11.90;99.90;;;;;;4969560;28;20033;-73
2023/09/26 02:07:46;;;;;;;7.25;4.20;;;11.90;99.90;;;;;;4971562;28;20043;-73
2023/09/26 02:10:13;;;;;;;7.10;4.63;;;11.90;99.90;;;;;;4986274;28;20026;-72
2023/09/26 02:12:42;;;;;;;6.43;4.50;;;11.80;99.90;;;;;;4971553;28;20042;-73
2023/09/26 02:15:13;;;;;;;7.63;4.70;;;11.80;99.90;;;;;;4969718;28;20518;-73
2023/09/26 02:17:42;;;;;;;6.35;4.32;;;11.80;99.90;;;;;;4970059;28;20034;-73
2023/09/26 02:20:13;;;;;;;5.95;4.57;;;11.70;99.90;;;;;;4970256;28;20031;-73
2023/09/26 02:22:49;;;;;;;6.50;4.47;;;11.70;99.90;;;;;;4971338;28;20033;-73
2023/09/26 02:25:18;;;;;;;6.95;4.53;;;11.70;99.90;;;;;;4986461;28;20663;-73
2023/09/26 02:27:48;;;;;;;4.45;4.05;;;11.70;99.90;;;;;;4969466;28;20061;-73
2023/09/26 02:30:21;;;;;;;6.53;4.50;;;11.70;99.90;;;;;;4968724;28;20062;-72
2023/09/26 02:32:47;;;;;;;7.35;4.90;;;11.60;99.90;;;;;;4970450;28;20038;-73
2023/09/26 02:35:21;;;;;;;6.88;4.57;;;11.60;99.90;;;;;;4967150;28;20255;-73
2023/09/26 02:37:48;;;;;;;10.48;4.53;;;11.60;99.90;;;;;;4982390;28;20548;-73
2023/09/26 02:40:19;;;;;;;6.57;4.80;;;11.60;99.90;;;;;;4968913;28;20026;-73
2023/09/26 02:42:50;;;;;;;6.28;4.63;;;11.60;99.90;;;;;;4964971;28;20078;-73
2023/09/26 02:45:15;;;;;;;6.95;4.97;;;11.50;99.90;;;;;;4967345;28;20507;-73
2023/09/26 02:47:42;;;;;;;7.70;5.05;;;11.50;99.90;;;;;;4983032;28;20023;-73
2023/09/26 02:50:13;;;;;;;6.85;4.63;;;11.50;99.90;;;;;;4970507;28;20056;-73
2023/09/26 02:52:48;;;;;;;7.43;4.97;;;11.50;99.90;;;;;;4971203;28;20035;-73
2023/09/26 02:55:14;;;;;;;11.85;5.43;;;11.50;99.90;;;;;;4969121;28;20046;-73
2023/09/26 02:57:42;;;;;;;8.98;5.40;;;11.50;99.90;;;;;;4972071;28;20042;-73
2023/09/26 03:00:17;;;;;;;10.02;5.28;;;11.50;99.90;;;;;;4971376;28;20042;-73
2023/09/26 03:02:46;;;;;;;7.32;4.97;;;11.50;99.90;;;;;;4968534;28;20034;-73
2023/09/26 03:05:28;;;;;;;6.95;4.70;;;11.50;99.90;;;;;;4969111;28;20031;-72
2023/09/26 03:07:53;;;;;;;7.30;4.65;;;11.50;99.90;;;;;;4971044;28;20023;-72
2023/09/26 03:10:25;;;;;;;9.05;4.40;;;11.50;99.90;;;;;;4970398;28;20536;-72
2023/09/26 03:12:50;;;;;;;7.10;5.05;;;11.50;99.90;;;;;;4984919;28;20050;-71
2023/09/26 03:15:16;;;;;;;6.28;4.53;;;11.50;99.90;;;;;;4966803;28;20077;-72
2023/09/26 03:17:42;;;;;;;7.90;5.05;;;11.40;99.90;;;;;;4971852;28;20015;-73
2023/09/26 03:20:17;;;;;;;7.07;4.50;;;11.40;99.90;;;;;;4974316;28;20038;-73
2023/09/26 03:22:45;;;;;;;6.38;4.68;;;11.40;99.90;;;;;;4973148;28;20117;-74
2023/09/26 03:25:20;;;;;;;7.03;4.53;;;11.40;99.90;;;;;;4975376;28;20035;-74
2023/09/26 03:27:47;;;;;;;8.18;4.68;;;11.40;99.90;;;;;;4987569;28;20082;-72
2023/09/26 03:30:27;;;;;;;6.18;4.65;;;11.30;99.90;;;;;;4974321;28;21830;-74
2023/09/26 03:32:53;;;;;;;7.32;4.85;;;11.30;99.90;;;;;;4975573;28;20034;-74
2023/09/26 03:35:21;;;;;;;6.15;4.45;;;11.30;99.90;;;;;;4988285;28;20042;-73
2023/09/26 03:37:53;;;;;;;7.05;4.28;;;11.30;99.90;;;;;;4971531;28;20078;-73
2023/09/26 03:40:25;;;;;;;6.30;4.07;;;11.20;99.90;;;;;;4975209;28;20034;-74
2023/09/26 03:42:56;;;;;;;6.55;4.00;;;11.20;99.90;;;;;;4974634;28;20394;-74
2023/09/26 03:45:25;;;;;;;5.93;4.25;;;11.20;99.90;;;;;;4975783;28;20030;-73
2023/09/26 03:47:51;;;;;;;4.72;3.60;;;11.20;99.90;;;;;;4976933;28;20023;-73
2023/09/26 03:50:16;;;;;;;8.55;4.20;;;11.10;99.90;;;;;;4975139;28;20046;-73
2023/09/26 03:52:42;;;;;;;5.15;3.78;;;11.10;99.90;;;;;;4988220;28;20037;-74
2023/09/26 03:55:08;;;;;;;5.35;3.78;;;11.00;99.90;;;;;;4975651;28;20034;-73
2023/09/26 03:57:37;;;;;;;6.25;4.15;;;11.00;99.90;;;;;;4977169;28;20031;-74
2023/09/26 04:00:16;;;;;;;5.97;4.03;;;10.90;99.90;;;;;;4972791;28;20035;-74
2023/09/26 04:02:48;;;;;;;5.38;3.88;;;10.90;99.90;;;;;;4974190;28;20113;-74
2023/09/26 04:05:20;;;;;;;5.55;4.03;;;10.80;99.90;;;;;;4972499;28;20034;-73
2023/09/26 04:07:48;;;;;;;7.10;4.15;;;10.80;99.90;;;;;;4965389;28;20035;-72
2023/09/26 04:10:17;;;;;;;6.53;4.32;;;10.80;99.90;;;;;;4981561;28;20173;-73
2023/09/26 04:12:47;;;;;;;6.80;4.63;;;10.80;99.90;;;;;;4969221;28;20030;-75
2023/09/26 04:15:15;;;;;;;7.40;5.15;;;10.80;99.90;;;;;;4986761;28;20042;-74
2023/09/26 04:17:47;;;;;;;7.38;4.82;;;10.70;99.90;;;;;;4971950;28;20019;-72
2023/09/26 04:20:12;;;;;;;8.82;5.35;;;10.70;99.90;;;;;;4988846;28;20038;-74
2023/09/26 04:22:44;;;;;;;9.48;5.35;;;10.80;99.90;;;;;;4973106;28;20023;-74
2023/09/26 04:25:13;;;;;;;10.10;6.47;;;10.70;99.90;;;;;;4972352;28;20023;-75
2023/09/26 04:27:51;;;;;;;9.65;5.47;;;10.80;99.90;;;;;;4976185;28;20497;-75
2023/09/26 04:30:17;;;;;;;8.90;5.32;;;10.70;99.90;;;;;;4974568;28;20034;-75
2023/09/26 04:32:43;;;;;;;9.75;5.63;;;10.70;99.90;;;;;;4980182;28;20041;-75
2023/09/26 04:35:08;;;;;;;8.88;5.85;;;10.70;99.90;;;;;;4976554;28;20027;-75
2023/09/26 04:37:35;;;;;;;11.35;5.60;;;10.70;99.90;;;;;;4976418;28;20117;-74
2023/09/26 04:40:00;;;;;;;9.73;5.97;;;10.70;99.90;;;;;;4975451;28;20019;-74
2023/09/26 04:42:26;;;;;;;7.80;5.25;;;10.70;99.90;;;;;;4975946;28;20430;-75
2023/09/26 04:44:52;;;;;;;7.32;5.10;;;10.70;99.90;;;;;;4971272;28;20114;-74
2023/09/26 04:47:29;;;;;;;8.55;6.32;;;10.70;99.90;;;;;;4975839;28;20026;-75
2023/09/26 04:49:55;;;;;;;10.60;5.90;;;10.70;99.90;;;;;;4974510;28;20036;-74
2023/09/26 04:52:30;;;;;;;9.02;6.43;;;10.70;99.90;;;;;;4975922;28;20045;-74
2023/09/26 04:54:55;;;;;;;8.90;5.63;;;10.70;99.90;;;;;;4988261;28;20134;-74
2023/09/26 04:57:21;;;;;;;11.15;5.75;;;10.70;99.90;;;;;;4976167;28;20062;-76
2023/09/26 04:59:46;;;;;;;9.52;5.88;;;10.60;99.90;;;;;;4976235;28;20102;-74
2023/09/26 05:02:21;;;;;;;7.82;5.47;;;10.60;99.90;;;;;;4975941;28;20062;-74
2023/09/26 05:04:49;;;;;;;8.43;6.65;;;10.60;99.90;;;;;;4974599;28;20023;-74
2023/09/26 05:07:18;;;;;;;9.10;6.18;;;10.60;99.90;;;;;;4975906;28;20140;-74
2023/09/26 05:09:47;;;;;;;9.60;6.55;;;10.60;99.90;;;;;;4975654;28;20023;-74
2023/09/26 05:12:15;;;;;;;11.55;6.53;;;10.70;99.90;;;;;;4973897;28;20453;-73
2023/09/26 05:14:41;;;;;;;9.27;6.43;;;10.60;99.90;;;;;;4973256;28;20031;-74
2023/09/26 05:17:06;;;;;;;9.85;5.93;;;10.60;99.90;;;;;;4973524;28;20102;-74
2023/09/26 05:19:41;;;;;;;10.02;5.13;;;10.50;99.90;;;;;;4975867;28;20133;-74
2023/09/26 05:22:06;;;;;;;8.40;5.28;;;10.60;99.90;;;;;;4973504;28;20041;-74
2023/09/26 05:24:32;;;;;;;10.07;5.35;;;10.60;99.90;;;;;;4972742;28;20031;-74
2023/09/26 05:26:58;;;;;;;7.55;5.10;;;10.50;99.90;;;;;;4985449;28;20047;-72
2023/09/26 05:29:26;;;;;;;9.15;5.03;;;10.50;99.90;;;;;;4974864;28;20023;-73
2023/09/26 05:31:58;;;;;;;7.57;4.75;;;10.50;99.90;;;;;;4970507;28;20027;-72
2023/09/26 05:34:24;;;;;;;7.57;5.05;;;10.50;99.90;;;;;;4986058;28;20398;-72
2023/09/26 05:36:49;;;;;;;8.07;5.22;;;10.50;99.90;;;;;;4969956;28;20035;-71
2023/09/26 05:39:15;;;;;;;6.50;4.57;;;10.50;99.90;;;;;;4966166;28;20082;-72
2023/09/26 05:41:40;;;;;;;9.30;5.20;;;10.60;99.90;;;;;;4969857;28;20045;-72
2023/09/26 05:44:06;;;;;;;6.95;5.47;;;10.60;99.90;;;;;;4965757;28;20391;-72
2023/09/26 05:46:31;;;;;;;11.88;5.90;;;10.60;99.90;;;;;;4967642;28;20030;-72
2023/09/26 05:48:57;;;;;;;8.50;6.13;;;10.60;99.90;;;;;;4967121;28;20031;-72
2023/09/26 05:51:29;;;;;;;8.50;5.20;;;10.70;99.90;;;;;;4968207;28;20042;-72
2023/09/26 05:53:55;;;;;;;9.38;5.63;;;10.60;99.90;;;;;;4968100;28;20050;-73
2023/09/26 05:56:20;;;;;;;12.60;5.70;;;10.60;99.90;;;;;;4984317;28;20622;-72
2023/09/26 05:58:47;;;;;;;8.80;4.82;;;10.70;99.90;;;;;;4967979;28;20046;-73
2023/09/26 06:01:15;;;;;;;11.13;4.80;;;10.70;99.90;;;;;;4966365;28;20061;-73
2023/09/26 06:03:41;;;;;;;8.25;5.32;;;10.70;99.90;;;;;;4969173;28;20026;-73
2023/09/26 06:06:06;;;;;;;10.50;6.70;;;10.70;99.90;;;;;;4966829;28;20101;-71
2023/09/26 06:08:34;;;;;;;13.98;6.20;;;10.80;99.90;;;;;;4985238;28;20054;-72
2023/09/26 06:11:00;;;;;;;10.98;5.78;;;10.80;99.90;;;;;;4971409;28;20015;-73
2023/09/26 06:13:29;;;;;;;12.20;7.10;;;10.80;99.90;;;;;;4968834;28;20258;-74
2023/09/26 06:15:54;;;;;;;10.57;5.90;;;10.80;99.90;;;;;;4975024;28;20442;-73
2023/09/26 06:18:20;;;;;;;13.02;6.43;;;10.90;99.90;;;;;;4969614;28;20022;-75
2023/09/26 06:20:51;;;;;;;15.57;7.05;;;10.90;99.90;;;;;;4970502;28;20150;-75
2023/09/26 06:23:31;;;;;;;17.23;6.53;;;11.00;99.90;;;;;;4969871;28;20153;-73
2023/09/26 06:25:58;;;;;;;16.25;7.30;;;11.00;99.90;;;;;;4968884;28;20027;-78
2023/09/26 06:28:33;;;;;;;12.02;7.30;;;11.10;99.90;;;;;;4969509;28;20401;-75
2023/09/26 06:31:09;;;;;;;12.45;6.28;;;11.20;99.90;;;;;;4971241;28;20110;-74
2023/09/26 06:33:47;;;;;;;10.35;5.32;;;11.20;99.90;;;;;;4965416;28;20023;-73
2023/09/26 06:36:14;;;;;;;10.10;6.03;;;11.30;99.90;;;;;;4968143;28;20034;-72
2023/09/26 06:38:48;;;;;;;8.23;5.57;;;11.30;99.90;;;;;;4967254;28;20033;-74
2023/09/26 06:41:14;;;;;;;12.73;6.68;;;11.30;99.90;;;;;;4968642;28;20019;-72
2023/09/26 06:43:40;;;;;;;8.98;5.38;;;11.30;99.90;;;;;;4973647;28;20038;-73
2023/09/26 06:46:06;;;;;;;8.02;5.82;;;11.40;99.90;;;;;;4974518;28;20089;-73
2023/09/26 06:48:37;;;;;;;9.18;4.80;;;11.40;99.90;;;;;;4968172;28;20473;-72
2023/09/26 06:51:02;;;;;;;11.43;5.28;;;11.50;99.90;;;;;;4968851;28;20041;-74
2023/09/26 06:53:29;;;;;;;7.03;5.03;;;11.50;99.90;;;;;;4966720;28;20031;-73
2023/09/26 06:56:01;;;;;;;7.18;5.05;;;11.50;99.90;;;;;;4965569;28;20029;-73
2023/09/26 06:58:27;;;;;;;7.30;5.03;;;11.60;99.90;;;;;;4966413;28;20035;-75
2023/09/26 07:00:53;;;;;;;6.65;4.97;;;11.60;99.90;;;;;;4967501;28;20019;-73
2023/09/26 07:03:27;;;;;;;8.57;5.03;;;11.70;99.90;;;;;;4966869;28;20015;-73
2023/09/26 07:05:53;;;;;;;;;;;11.70;99.90;;;;;;4987506;28;20046;-74
2023/09/26 07:08:28;;;;;;;8.30;5.22;;;11.70;99.90;;;;;;4964653;28;19961;-74
2023/09/26 07:11:02;;;;;;;14.18;5.90;;;11.80;99.90;;;;;;4973804;28;20038;-75
2023/09/26 07:13:28;;;;;;;11.35;5.78;;;11.80;99.90;;;;;;4971356;28;20029;-73
2023/09/26 07:16:00;;;;;;;11.98;5.97;;;11.90;99.90;;;;;;4970909;28;20031;-72
2023/09/26 07:18:26;;;;;;;16.70;5.90;;;11.90;99.90;;;;;;4961805;28;20034;-74
2023/09/26 07:20:51;;;;;;;11.70;6.05;;;12.00;99.90;;;;;;4971716;28;20490;-74
2023/09/26 07:23:20;;;;;;;10.50;6.13;;;12.00;99.90;;;;;;4973284;28;20030;-74
2023/09/26 07:25:49;;;;;;;8.98;5.70;;;12.10;99.90;;;;;;4973482;28;20035;-75
2023/09/26 07:28:14;;;;;;;12.63;6.85;;;12.10;99.90;;;;;;4974052;28;20098;-76
2023/09/26 07:30:52;;;;;;;9.38;6.25;;;12.10;99.90;;;;;;4975586;28;20114;-74
2023/09/26 07:33:23;;;;;;;9.80;6.30;;;12.20;99.90;;;;;;4988519;28;20045;-73
2023/09/26 07:35:52;;;;;;;13.20;6.55;;;12.20;99.90;;;;;;4974572;28;20493;-74
2023/09/26 07:38:20;;;;;;;9.38;6.05;;;12.30;99.90;;;;;;4974788;28;20019;-75
2023/09/26 07:40:53;;;;;;;10.18;6.20;;;12.40;99.90;;;;;;4974332;28;20133;-74
2023/09/26 07:43:18;;;;;;;8.30;6.00;;;12.40;99.90;;;;;;4973341;28;20051;-73
2023/09/26 07:46:04;;;;;;;9.10;6.25;;;12.50;99.90;;;;;;4972761;28;20034;-74
2023/09/26 07:48:34;;;;;;;9.32;5.75;;;12.50;99.90;;;;;;4988559;28;20062;-72
2023/09/26 07:51:00;;;;;;;9.60;6.15;;;12.60;99.90;;;;;;4988097;28;20031;-73
2023/09/26 07:53:26;;;;;;;9.70;6.00;;;12.70;99.90;;;;;;4972902;28;20034;-74
2023/09/26 07:55:58;;;;;;;11.05;6.40;;;12.80;99.90;;;;;;4973565;28;20050;-75
2023/09/26 07:58:26;;;;;;;9.85;6.43;;;12.80;99.90;;;;;;4973319;28;20105;-75
2023/09/26 08:01:06;;;;;;;12.80;6.25;;;12.90;99.90;;;;;;4973535;28;20023;-74
2023/09/26 08:03:32;;;;;;;9.60;6.20;;;13.00;99.90;;;;;;4973894;28;20442;-76
2023/09/26 08:05:59;;;;;;;10.50;6.22;;;13.10;99.90;;;;;;4988108;28;20069;-75
2023/09/26 08:08:25;;;;;;;13.68;6.35;;;13.20;99.90;;;;;;4974411;28;20469;-75
2023/09/26 08:11:03;;;;;;;11.85;6.28;;;13.20;99.90;;;;;;4988304;28;20130;-74
2023/09/26 08:13:28;;;;;;;12.55;6.80;;;13.30;99.90;;;;;;4975931;28;20493;-73
2023/09/26 08:15:54;;;;;;;13.15;6.85;;;13.40;99.90;;;;;;4990806;28;20027;-76
2023/09/26 08:18:20;;;;;;;9.82;6.18;;;13.40;99.90;;;;;;4967623;28;20031;-74
2023/09/26 08:20:49;;;;;;;14.15;6.90;;;13.50;99.90;;;;;;4972622;28;20027;-74
2023/09/26 08:23:18;;;;;;;12.85;6.75;;;13.60;99.90;;;;;;4973662;28;20026;-75
2023/09/26 08:25:53;;;;;;;9.25;6.30;;;13.70;99.90;;;;;;4973440;28;20023;-74
2023/09/26 08:28:22;;;;;;;12.27;6.95;;;13.80;99.90;;;;;;4963973;28;20039;-73
2023/09/26 08:31:05;;;;;;;14.93;7.28;;;13.90;99.90;;;;;;4978210;28;20121;-75
2023/09/26 08:33:31;;;;;;;11.25;7.28;;;13.90;99.90;;;;;;4970346;28;20023;-75
2023/09/26 08:36:00;;;;;;;13.13;8.20;;;14.00;99.90;;;;;;4991396;28;20035;-75
2023/09/26 08:38:26;;;;;;;11.75;7.38;;;14.10;99.90;;;;;;4972551;28;20053;-75
2023/09/26 08:40:52;;;;;;;10.65;7.55;;;14.20;99.90;;;;;;4986209;28;20030;-74
2023/09/26 08:43:26;;;;;;;11.68;7.60;;;14.30;99.90;;;;;;4974540;28;20482;-76
2023/09/26 08:45:52;;;;;;;12.90;7.97;;;14.40;99.90;;;;;;4972441;28;20604;-76
2023/09/26 08:48:19;;;;;;;11.20;7.72;;;14.40;99.90;;;;;;4971763;28;20034;-75
2023/09/26 08:50:46;;;;;;;10.68;7.18;;;14.60;99.90;;;;;;4971847;28;20034;-76
2023/09/26 08:53:12;;;;;;;12.77;8.27;;;14.60;99.90;;;;;;4970136;28;20031;-78
2023/09/26 08:55:39;;;;;;;14.07;7.75;;;14.70;99.90;;;;;;4969457;28;20031;-77
2023/09/26 08:58:08;;;;;;;15.07;8.40;;;14.80;99.90;;;;;;4966590;28;20030;-77
2023/09/26 09:00:34;;;;;;;15.20;8.20;;;14.90;99.90;;;;;;4973704;28;20387;-77
2023/09/26 09:02:59;;;;;;;15.40;8.02;;;15.00;99.90;;;;;;4967035;28;20026;-76
2023/09/26 09:05:25;;;;;;;12.73;7.53;;;15.00;99.90;;;;;;4967193;28;20397;-77
2023/09/26 09:07:51;;;;;;;13.50;7.57;;;15.10;99.90;;;;;;4965884;28;20183;-78
2023/09/26 09:10:17;;;;;;;11.73;7.10;;;15.20;99.90;;;;;;4980786;28;20035;-77
2023/09/26 09:12:47;;;;;;;14.18;6.85;;;15.30;99.90;;;;;;4972297;28;20026;-78
2023/09/26 09:15:20;;;;;;;11.93;6.47;;;15.40;99.90;;;;;;4972896;28;20654;-77
2023/09/26 09:17:47;;;;;;;10.73;7.10;;;15.50;99.90;;;;;;4968528;28;20045;-78
2023/09/26 09:20:16;;;;;;;11.38;6.80;;;15.60;99.90;;;;;;4969614;28;20054;-78
2023/09/26 09:22:46;;;;;;;9.90;6.18;;;15.70;99.90;;;;;;4969727;28;20026;-77
2023/09/26 09:25:18;;;;;;;9.60;5.95;;;15.80;99.90;;;;;;4968799;28;20033;-77
2023/09/26 09:27:44;;;;;;;8.73;5.40;;;15.90;99.90;;;;;;4972393;28;20046;-77
2023/09/26 09:30:15;;;;;;;8.85;5.78;;;16.00;99.90;;;;;;4987612;28;20054;-77
2023/09/26 09:32:42;;;;;;;10.13;5.32;;;16.10;99.90;;;;;;4965210;28;20034;-77
2023/09/26 09:35:18;;;;;;;8.35;5.10;;;16.20;99.90;;;;;;4981952;28;20039;-78
2023/09/26 09:37:50;;;;;;;9.43;5.28;;;16.20;99.90;;;;;;4971394;28;20043;-76
2023/09/26 09:40:25;;;;;;;10.98;5.40;;;16.30;99.90;;;;;;4968206;28;20054;-78
2023/09/26 09:43:08;;;;;;;9.35;5.85;;;16.40;99.90;;;;;;4971653;28;20109;-78
2023/09/26 09:45:37;;;;;;;6.40;4.88;;;16.50;99.90;;;;;;4972471;28;20525;-75
2023/09/26 09:48:16;;;;;;;8.68;4.30;;;16.70;99.90;;;;;;4968755;28;20023;-78
2023/09/26 09:50:46;;;;;;;7.63;4.35;;;16.80;99.90;;;;;;4969600;28;20026;-77
2023/09/26 09:53:17;;;;;;;10.65;5.32;;;16.80;99.90;;;;;;4967573;28;20031;-77
2023/09/26 09:55:48;;;;;;;10.20;4.85;;;16.90;99.90;;;;;;4966692;28;20114;-77
2023/09/26 09:58:17;;;;;;;7.38;4.28;;;17.00;99.90;;;;;;4967831;28;20101;-77
2023/09/26 10:00:45;;;;;;;4.85;3.60;;;17.10;99.90;;;;;;4965305;28;20421;-77
2023/09/26 10:03:17;;;;;;;8.10;4.78;;;17.20;99.90;;;;;;4975022;28;20107;-79
2023/09/26 10:05:45;;;;;;;9.27;3.88;;;17.30;99.90;;;;;;4975454;28;20027;-78
2023/09/26 10:08:22;;;;;;;6.72;4.22;;;17.40;99.90;;;;;;4973909;28;20129;-78
2023/09/26 10:10:56;;;;;;;6.30;4.05;;;17.40;99.90;;;;;;4966143;28;20566;-79
2023/09/26 10:13:22;;;;;;;7.28;4.40;;;17.60;99.90;;;;;;4983937;28;20393;-78
2023/09/26 10:16:07;;;;;;;6.25;4.30;;;17.60;99.90;;;;;;4983909;28;20054;-76
2023/09/26 10:18:44;;;;;;;6.60;3.88;;;17.70;99.90;;;;;;4969367;28;20023;-79
2023/09/26 10:21:23;;;;;;;7.90;4.45;;;17.80;99.90;;;;;;4965668;28;20418;-77
2023/09/26 10:24:08;;;;;;;5.38;3.70;;;17.90;99.90;;;;;;4966257;28;20076;-77
2023/09/26 10:26:45;;;;;;;4.80;3.40;;;17.90;99.90;;;;;;4968448;28;20030;-75
2023/09/26 10:29:11;;;;;;;6.05;3.83;;;18.00;99.90;;;;;;4967819;28;20086;-76
2023/09/26 10:31:57;;;;;;;10.80;4.65;;;18.10;99.90;;;;;;4964513;28;20042;-77
2023/09/26 10:34:28;;;;;;;7.05;4.18;;;18.20;99.90;;;;;;4981349;28;20023;-78
2023/09/26 10:37:00;;;;;;;7.70;4.40;;;18.30;99.90;;;;;;4972347;28;20044;-78
2023/09/26 10:39:40;;;;;;;6.47;3.50;;;18.30;99.90;;;;;;4972655;28;20053;-77
2023/09/26 10:42:31;;;;;;;10.38;4.15;;;18.30;99.90;;;;;;4969504;28;20090;-78
2023/09/26 10:44:57;;;;;;;5.28;3.25;;;18.40;99.90;;;;;;4966444;28;20034;-78
2023/09/26 10:47:26;;;;;;;5.90;3.90;;;18.50;99.90;;;;;;4987868;28;20441;-78
2023/09/26 10:49:51;;;;;;;7.07;3.80;;;18.60;99.90;;;;;;4969681;28;20018;-78
2023/09/26 10:52:17;;;;;;;4.78;3.42;;;18.70;99.90;;;;;;4971902;28;20038;-78
2023/09/26 10:54:43;;;;;;;6.57;3.15;;;18.70;99.90;;;;;;4974342;28;20984;-78
2023/09/26 10:57:25;;;;;;;6.50;3.08;;;18.80;99.90;;;;;;4985701;28;22228;-78
2023/09/26 10:59:54;;;;;;;6.15;3.70;;;18.90;99.90;;;;;;4972711;28;20145;-78
2023/09/26 11:02:22;;;;;;;8.30;4.47;;;18.90;99.90;;;;;;4972047;28;20030;-80
2023/09/26 11:04:47;;;;;;;5.55;3.17;;;18.90;99.90;;;;;;4967008;28;20030;-78
2023/09/26 11:07:15;;;;;;;5.53;3.20;;;19.00;99.90;;;;;;4965046;28;20113;-77
2023/09/26 11:09:58;;;;;;;4.57;3.13;;;19.10;99.90;;;;;;4966194;28;20514;-78
2023/09/26 11:12:24;;;;;;;7.20;3.78;;;19.10;99.90;;;;;;4965724;28;20039;-78
2023/09/26 11:14:54;;;;;;;5.28;3.22;;;19.10;99.90;;;;;;4967900;28;20034;-79
2023/09/26 11:17:19;;;;;;;5.13;3.30;;;19.10;99.90;;;;;;4983000;28;20029;-79
2023/09/26 11:19:51;;;;;;;4.78;2.95;;;19.20;99.90;;;;;;4982688;28;20024;-79
2023/09/26 11:22:17;;;;;;;5.68;3.75;;;19.20;99.90;;;;;;4974538;28;20030;-78
2023/09/26 11:25:05;;;;;;;5.53;3.30;;;19.30;99.90;;;;;;4971797;28;20456;-78
2023/09/26 11:27:30;;;;;;;7.47;2.67;;;19.40;99.90;;;;;;4965503;28;20027;-77
2023/09/26 11:29:59;;;;;;;5.13;2.50;;;19.50;99.90;;;;;;4964820;28;20033;-76
2023/09/26 11:32:25;;;;;;;6.65;3.03;;;19.60;99.90;;;;;;4967946;28;20114;-76
2023/09/26 11:34:57;;;;;;;4.25;2.78;;;19.60;99.90;;;;;;4963313;28;20189;-77
2023/09/26 11:37:29;;;;;;;6.55;2.85;;;19.70;99.90;;;;;;4961348;28;20478;-75
2023/09/26 11:39:55;;;;;;;7.05;2.67;;;19.70;99.90;;;;;;4981340;28;20498;-78
2023/09/26 11:42:21;;;;;;;3.78;2.50;;;19.70;99.90;;;;;;4962765;28;20054;-76
2023/09/26 11:44:58;;;;;;;8.98;2.60;;;19.60;99.90;;;;;;4965931;28;20031;-77
2023/09/26 11:47:24;;;;;;;4.50;2.55;;;19.70;99.90;;;;;;4966493;28;20077;-76
2023/09/26 11:49:51;;;;;;;4.70;3.00;;;19.70;99.90;;;;;;4966913;28;20030;-76
2023/09/26 11:52:18;;;;;;;6.57;2.47;;;19.80;99.90;;;;;;4968838;28;20031;-75
2023/09/26 11:54:44;;;;;;;2.83;2.38;;;19.90;99.90;;;;;;4971537;28;20054;-76
2023/09/26 11:57:13;;;;;;;3.60;2.10;;;19.90;99.90;;;;;;4989073;28;20500;-76
2023/09/26 11:59:42;;;;;;;3.92;1.90;;;20.00;99.90;;;;;;4989204;28;20482;-75
2023/09/26 12:02:08;;;;;;;3.53;2.03;;;20.00;99.90;;;;;;4960890;28;20406;-77
2023/09/26 12:04:35;;;;;;;3.00;2.35;;;20.20;99.90;;;;;;4970143;28;20031;-76
2023/09/26 12:07:05;;;;;;;6.22;2.92;;;20.30;99.90;;;;;;4964839;28;20022;-75
2023/09/26 12:09:37;;;;;;;3.97;2.47;;;20.30;99.90;;;;;;4968494;28;20171;-75
2023/09/26 12:12:03;;;;;;;26.02;19.20;;;20.30;99.90;;;;;;4963624;28;20034;-75
2023/09/26 12:14:28;;;;;;;5.57;2.88;;;20.40;99.90;;;;;;4987227;28;20394;-76
2023/09/26 12:16:56;;;;;;;3.30;1.85;;;20.40;99.90;;;;;;4970384;28;20034;-77
2023/09/26 12:19:22;;;;;;;4.57;2.20;;;20.50;99.90;;;;;;4967023;28;20025;-76
2023/09/26 12:21:54;;;;;;;4.03;1.98;;;20.50;99.90;;;;;;4969692;28;20708;-77
2023/09/26 12:24:19;;;;;;;3.28;2.33;;;20.60;99.90;;;;;;4969232;28;20054;-76
2023/09/26 12:26:48;;;;;;;3.85;1.85;;;20.60;99.90;;;;;;4967433;28;20058;-76
2023/09/26 12:29:16;;;;;;;2.70;2.05;;;20.60;99.90;;;;;;4966562;28;20125;-76
2023/09/26 12:31:43;;;;;;;4.35;2.20;;;20.60;99.90;;;;;;4963971;28;20202;-76
2023/09/26 12:34:10;;;;;;;4.35;1.90;;;20.70;99.90;;;;;;4966790;28;20042;-74
2023/09/26 12:36:35;;;;;;;4.55;2.40;;;20.80;99.90;;;;;;4971272;28;20037;-77
2023/09/26 12:39:01;;;;;;;4.07;1.92;;;20.80;99.90;;;;;;4981047;28;20027;-76
2023/09/26 12:41:28;;;;;;;7.35;2.22;;;20.90;99.90;;;;;;4966453;28;20019;-76
2023/09/26 12:43:54;;;;;;;3.45;2.30;;;20.90;99.90;;;;;;4970548;28;20026;-76
2023/09/26 12:46:21;;;;;;;3.22;2.17;;;20.90;99.90;;;;;;4971015;28;20022;-75
2023/09/26 12:48:47;;;;;;;4.03;2.10;;;20.90;99.90;;;;;;4972272;28;20266;-76
2023/09/26 12:51:13;;;;;;;4.60;2.13;;;20.90;99.90;;;;;;4968388;28;20421;-76
2023/09/26 12:53:38;;;;;;;3.30;1.73;;;20.80;99.90;;;;;;4969619;28;20038;-76
2023/09/26 12:56:04;;;;;;;3.08;1.88;;;20.90;99.90;;;;;;4972025;28;20026;-76